createdAt,value
2023-02-03T06:32:16.376Z,5.10
2023-02-03T06:34:43.579Z,5.70
2023-02-03T06:37:10.701Z,5.80
2023-02-03T06:39:38.293Z,5.80
2023-02-03T06:42:05.588Z,5.80
2023-02-03T06:44:32.732Z,5.80
2023-02-03T06:47:02.985Z,5.70
2023-02-03T06:49:30.235Z,5.70
2023-02-03T06:51:57.435Z,5.60
2023-02-03T06:54:24.765Z,5.50
2023-02-03T06:56:52.089Z,5.60
2023-02-03T06:59:19.404Z,5.20
2023-02-03T07:01:49.364Z,5.40
2023-02-03T07:04:17.386Z,5.60
2023-02-03T07:06:45.386Z,5.50
2023-02-03T07:09:12.974Z,4.90
2023-02-03T07:11:40.790Z,5.60
2023-02-03T07:14:08.284Z,5.60
2023-02-03T07:16:37.753Z,5.60
2023-02-03T07:19:06.341Z,5.70
2023-02-03T07:21:34.609Z,5.70
2023-02-03T07:24:03.744Z,5.70
2023-02-03T07:26:32.174Z,5.70
2023-02-03T07:29:00.867Z,5.80
2023-02-03T07:31:28.392Z,5.80
2023-02-03T07:33:56.434Z,5.80
2023-02-03T07:36:24.385Z,5.90
2023-02-03T07:38:51.645Z,5.40
2023-02-03T07:41:19.431Z,5.90
2023-02-03T07:43:47.140Z,5.90
2023-02-03T07:46:14.804Z,6.00
2023-02-03T07:48:42.257Z,6.00
2023-02-03T07:51:10.187Z,5.90
2023-02-03T07:53:37.991Z,6.00
2023-02-03T07:56:06.004Z,9.90
2023-02-03T07:58:33.419Z,6.00
2023-02-03T08:01:01.172Z,5.90
2023-02-03T08:03:28.808Z,5.50
2023-02-03T08:05:56.690Z,5.90
2023-02-03T08:08:24.256Z,5.90
2023-02-03T08:10:51.768Z,5.90
2023-02-03T08:13:19.405Z,5.90
2023-02-03T08:15:47.797Z,5.90
2023-02-03T08:18:15.183Z,6.00
2023-02-03T08:20:42.782Z,5.90
2023-02-03T08:23:10.390Z,6.00
2023-02-03T08:25:40.422Z,5.70
2023-02-03T08:28:07.797Z,6.30
2023-02-03T08:30:35.412Z,6.10
2023-02-03T08:33:02.658Z,6.20
2023-02-03T08:35:30.264Z,6.20
2023-02-03T08:37:57.464Z,6.20
2023-02-03T08:40:24.870Z,5.40
2023-02-03T08:42:52.182Z,6.20
2023-02-03T08:45:19.478Z,6.20
2023-02-03T08:47:47.227Z,6.20
2023-02-03T08:50:14.554Z,6.30
2023-02-03T08:52:42.871Z,6.20
2023-02-03T08:55:10.393Z,6.60
2023-02-03T08:57:42.449Z,6.10
2023-02-03T09:00:13.427Z,6.10
2023-02-03T09:02:40.783Z,5.90
2023-02-03T09:05:08.907Z,5.50
2023-02-03T09:07:37.138Z,5.90
2023-02-03T09:12:37.273Z,6.00
2023-02-03T09:15:06.895Z,6.10
2023-02-03T09:17:35.343Z,6.10
2023-02-03T09:20:03.240Z,6.10
2023-02-03T09:22:31.289Z,6.20
2023-02-03T09:24:59.168Z,6.30
2023-02-03T09:27:26.966Z,6.30
2023-02-03T09:29:54.820Z,6.50
2023-02-03T09:32:22.298Z,6.50
2023-02-03T09:34:49.741Z,6.60
2023-02-03T09:37:21.223Z,5.40
2023-02-03T09:40:04.430Z,6.30
2023-02-03T09:42:59.771Z,6.60
2023-02-03T09:45:34.329Z,6.70
2023-02-03T09:48:15.331Z,6.50
2023-02-03T09:50:50.425Z,7.00
2023-02-03T09:53:42.315Z,7.00
2023-02-03T09:56:28.456Z,7.00
2023-02-03T09:58:59.963Z,6.90
2023-02-03T10:01:38.718Z,6.50
2023-02-03T10:04:28.195Z,6.80
2023-02-03T10:07:08.166Z,6.80
2023-02-03T10:10:03.488Z,7.00
2023-02-03T10:15:43.042Z,7.00
2023-02-03T10:18:14.764Z,7.00
2023-02-03T10:20:49.126Z,7.00
2023-02-03T10:23:26.847Z,7.30
2023-02-03T10:25:57.960Z,7.20
2023-02-03T10:28:31.022Z,7.50
2023-02-03T10:31:05.309Z,7.30
2023-02-03T10:33:36.610Z,7.40
2023-02-03T10:36:23.312Z,7.30
2023-02-03T10:39:05.840Z,7.30
2023-02-03T10:41:36.126Z,7.70
2023-02-03T10:44:08.952Z,7.10
2023-02-03T10:46:43.636Z,7.10
2023-02-03T10:49:15.677Z,7.00
2023-02-03T10:51:50.819Z,7.10
2023-02-03T10:54:36.640Z,6.70
2023-02-03T10:57:14.437Z,7.10
2023-02-03T10:59:47.404Z,7.20
2023-02-03T11:02:26.221Z,7.50
2023-02-03T11:05:19.183Z,7.70
2023-02-03T11:07:49.765Z,7.60
2023-02-03T11:10:40.922Z,7.80
2023-02-03T11:13:26.168Z,7.90
2023-02-03T11:16:07.193Z,7.80
2023-02-03T11:18:56.327Z,8.00
2023-02-03T11:21:30.110Z,8.00
2023-02-03T11:24:26.967Z,7.60
2023-02-03T11:27:03.111Z,7.70
2023-02-03T11:29:34.521Z,7.40
2023-02-03T11:32:15.283Z,7.40
2023-02-03T11:34:50.580Z,7.50
2023-02-03T11:37:29.912Z,7.40
2023-02-03T11:45:42.709Z,7.30
2023-02-03T11:51:03.200Z,7.30
2023-02-03T11:53:57.261Z,7.20
2023-02-03T11:56:50.789Z,7.50
2023-02-03T11:59:52.277Z,7.50
2023-02-03T12:02:41.804Z,7.50
2023-02-03T12:05:38.062Z,9.10
2023-02-03T12:08:36.265Z,7.80
2023-02-03T12:11:29.058Z,8.00
2023-02-03T12:14:31.040Z,7.80
2023-02-03T12:17:26.689Z,7.90
2023-02-03T12:20:23.299Z,8.10
2023-02-03T12:23:30.361Z,8.10
2023-02-03T12:26:17.087Z,8.00
2023-02-03T12:29:09.042Z,8.00
2023-02-03T12:32:02.956Z,7.80
2023-02-03T12:35:02.842Z,7.70
2023-02-03T12:37:56.437Z,7.80
2023-02-03T12:40:50.672Z,7.80
2023-02-03T12:43:50.585Z,7.90
2023-02-03T12:46:31.293Z,7.70
2023-02-03T12:49:21.225Z,7.20
2023-02-03T12:51:59.669Z,7.60
2023-02-03T12:54:54.949Z,7.70
2023-02-03T13:03:46.992Z,7.80
2023-02-03T13:06:24.513Z,7.40
2023-02-03T13:09:24.355Z,7.50
2023-02-03T13:12:05.356Z,7.20
2023-02-03T13:14:43.113Z,7.50
2023-02-03T13:17:20.324Z,7.50
2023-02-03T13:19:53.015Z,7.00
2023-02-03T13:22:23.977Z,7.50
2023-02-03T13:25:05.468Z,7.60
2023-02-03T13:28:05.736Z,7.50
2023-02-03T13:30:59.373Z,7.50
2023-02-03T13:33:45.827Z,7.50
2023-02-03T13:36:40.292Z,7.50
2023-02-03T13:39:40.814Z,7.30
2023-02-03T13:42:30.533Z,7.30
2023-02-03T13:45:06.786Z,7.40
2023-02-03T13:47:34.409Z,7.20
2023-02-03T13:50:06.259Z,7.30
2023-02-03T13:52:44.547Z,7.50
2023-02-03T13:55:29.758Z,7.20
2023-02-03T13:57:57.874Z,6.80
2023-02-03T14:00:50.186Z,6.90
2023-02-03T14:03:38.666Z,7.00
2023-02-03T14:06:30.665Z,7.00
2023-02-03T14:09:00.189Z,6.90
2023-02-03T14:11:45.473Z,7.00
2023-02-03T14:16:55.378Z,6.90
2023-02-03T14:22:08.367Z,6.90
2023-02-03T14:24:40.301Z,6.90
2023-02-03T14:27:20.186Z,7.00
2023-02-03T14:30:07.633Z,7.00
2023-02-03T14:32:55.226Z,7.20
2023-02-03T14:35:40.968Z,6.90
2023-02-03T14:38:13.294Z,6.90
2023-02-03T14:40:59.621Z,6.90
2023-02-03T14:43:39.620Z,6.90
2023-02-03T14:46:36.544Z,6.90
2023-02-03T14:49:16.295Z,6.90
2023-02-03T14:52:23.313Z,6.90
2023-02-03T14:55:22.465Z,7.00
2023-02-03T14:57:53.663Z,7.00
2023-02-03T15:03:15.838Z,6.50
2023-02-03T15:05:48.888Z,7.00
2023-02-03T15:08:36.589Z,7.00
2023-02-03T15:11:25.033Z,6.90
2023-02-03T15:13:52.800Z,6.90
2023-02-03T15:16:22.785Z,7.00
2023-02-03T15:19:00.253Z,7.00
2023-02-03T15:21:27.434Z,6.80
2023-02-03T15:23:54.917Z,7.00
2023-02-03T15:26:25.707Z,6.90
2023-02-03T15:28:55.968Z,7.00
2023-02-03T15:31:32.363Z,6.90
2023-02-03T15:34:06.349Z,6.90
2023-02-03T15:36:44.636Z,6.90
2023-02-03T15:39:28.000Z,6.90
2023-02-03T15:41:58.373Z,6.90
2023-02-03T15:44:33.085Z,6.90
2023-02-03T15:47:04.473Z,6.90
2023-02-03T15:49:39.065Z,6.90
2023-02-03T15:52:17.598Z,6.90
2023-02-03T15:54:53.493Z,6.90
2023-02-03T15:57:25.739Z,6.90
2023-02-03T15:59:57.713Z,6.90
2023-02-03T16:02:33.021Z,6.90
2023-02-03T16:05:23.750Z,6.90
2023-02-03T16:07:51.107Z,6.80
2023-02-03T16:10:34.258Z,6.90
2023-02-03T16:13:21.481Z,6.70
2023-02-03T16:16:17.511Z,6.60
2023-02-03T16:18:55.334Z,6.30
2023-02-03T16:21:29.273Z,6.50
2023-02-03T16:23:57.120Z,6.50
2023-02-03T16:26:26.386Z,6.50
2023-02-03T16:32:06.670Z,6.30
2023-02-03T16:34:54.396Z,6.30
2023-02-03T16:37:52.341Z,6.30
2023-02-03T16:40:42.208Z,6.20
2023-02-03T16:43:32.808Z,6.20
2023-02-03T16:46:21.050Z,6.20
2023-02-03T16:49:08.150Z,6.20
2023-02-03T16:51:40.338Z,6.20
2023-02-03T16:54:11.364Z,6.20
2023-02-03T16:56:38.744Z,6.20
2023-02-03T16:59:06.206Z,6.20
